Terminal Aerodrome Forecast
Issued by NWS

Home | Current Version | Previous Version | Text Only | Print | Product List | Glossary On
Versions: 1 2 3 4 5 6 7 8 9 10 11 12 13 14 15 16 17 18 19
000
FTUS42 TJSJ 191700 RRA
TAFIST
TAF
TIST 191740Z 1918/2018 12014G19KT P6SM VCSH SCT025 SCT040 BKN070
      TEMPO 1918/1922 VRB15G27KT 5SM -SHRA BKN022 BKN040
     FM192300 10012KT P6SM FEW025 SCT080
     FM200300 09010KT P6SM VCSH SCT022 SCT040
     FM201450 12017KT P6SM SCT030 SCT050=

USA.gov is the U.S. government's official web portal to all federal, state and local government web resources and services.